createdAt,value
2019-04-05T03:07:14.187Z,34.3
2019-04-05T03:08:03.982Z,34.4
2019-04-05T03:09:09.254Z,34.4
2019-04-05T03:09:44.386Z,34.4
2019-04-05T03:10:34.688Z,34.4
2019-04-05T03:11:24.417Z,34.4
2019-04-05T03:12:14.344Z,34.4
2019-04-05T03:13:04.614Z,34.3
2019-04-05T03:13:54.719Z,34.3
2019-04-05T03:14:44.619Z,34.3
2019-04-05T03:15:34.423Z,34.3
2019-04-05T03:16:44.131Z,34.3
2019-04-05T03:17:14.923Z,34.3
2019-04-05T03:18:05.046Z,34.3
2019-04-05T03:18:55.040Z,34.3
2019-04-05T03:19:44.578Z,34.3
2019-04-05T03:20:34.858Z,34.3
2019-04-05T03:21:24.986Z,34.3
2019-04-05T03:22:14.959Z,34.3
2019-04-05T03:23:05.423Z,34.3
2019-04-05T03:23:55.657Z,34.3
2019-04-05T03:24:45.711Z,34.3
2019-04-05T03:25:35.637Z,34.3
2019-04-05T03:26:25.864Z,34.3
2019-04-05T03:27:15.080Z,34.3
2019-04-05T03:28:05.673Z,34.3
2019-04-05T03:28:56.005Z,34.3
2019-04-05T03:29:45.769Z,34.3
2019-04-05T03:30:36.473Z,34.2
2019-04-05T03:31:32.076Z,34.2
2019-04-05T03:32:16.521Z,34.2
2019-04-05T03:33:06.103Z,34.2
2019-04-05T03:33:56.603Z,34.2
2019-04-05T03:34:47.301Z,34.2
2019-04-05T03:35:36.410Z,34.2
2019-04-05T03:36:25.813Z,34.2
2019-04-05T03:37:15.802Z,34.2
2019-04-05T03:38:06.652Z,34.2
2019-04-05T03:38:56.222Z,34.2
2019-04-05T03:39:47.327Z,34.1
2019-04-05T03:40:36.480Z,34.2
2019-04-05T03:41:26.924Z,34.1
2019-04-05T03:42:16.481Z,34.1
2019-04-05T03:43:06.102Z,34.1
2019-04-05T03:43:56.875Z,34.1
2019-04-05T03:44:46.873Z,34.1
2019-04-05T03:45:37.135Z,34.1
2019-04-05T03:46:26.719Z,34.1
2019-04-05T03:47:17.077Z,34.1
2019-04-05T03:48:06.981Z,34.1
2019-04-05T03:48:57.753Z,34.1
2019-04-05T03:49:47.551Z,34.1
2019-04-05T03:50:37.050Z,34.1
2019-04-05T03:51:27.239Z,34.1
2019-04-05T03:52:17.707Z,34.1
2019-04-05T03:53:07.773Z,34.1
2019-04-05T03:53:58.081Z,34.1
2019-04-05T03:54:48.094Z,34.1
2019-04-05T03:55:37.653Z,34.1
2019-04-05T03:56:28.042Z,34.1
2019-04-05T03:57:18.299Z,34.1
2019-04-05T03:58:07.735Z,34
2019-04-05T03:58:58.173Z,34
2019-04-05T03:59:47.954Z,34
2019-04-05T04:00:38.823Z,34
2019-04-05T04:01:28.358Z,34
2019-04-05T04:02:18.118Z,34
2019-04-05T04:03:07.912Z,34
2019-04-05T04:03:57.746Z,34
2019-04-05T04:05:02.836Z,34
2019-04-05T04:05:38.602Z,34
2019-04-05T04:06:28.729Z,34
2019-04-05T04:07:18.635Z,33.9
2019-04-05T04:08:08.671Z,33.9
2019-04-05T04:08:57.950Z,33.9
2019-04-05T04:09:48.998Z,33.9
2019-04-05T04:10:38.731Z,33.9
2019-04-05T04:11:28.810Z,33.9
2019-04-05T04:12:18.908Z,33.9
2019-04-05T04:13:09.551Z,33.9
2019-04-05T04:13:59.733Z,33.9
2019-04-05T04:14:48.750Z,33.9
2019-04-05T04:15:39.668Z,33.9
2019-04-05T04:16:29.408Z,33.9
2019-04-05T04:17:18.537Z,33.9
2019-04-05T04:18:10.043Z,33.9
2019-04-05T04:19:00.151Z,33.9
2019-04-05T04:19:50.180Z,33.9
2019-04-05T04:20:40.335Z,33.9
2019-04-05T04:21:29.767Z,33.9
2019-04-05T04:22:19.376Z,33.9
2019-04-05T04:23:10.420Z,33.9
2019-04-05T04:24:00.179Z,33.8
2019-04-05T04:24:50.461Z,33.8
2019-04-05T04:25:40.086Z,33.9
2019-04-05T04:26:30.667Z,33.8
2019-04-05T04:27:19.485Z,33.8
2019-04-05T04:28:10.220Z,33.8
2019-04-05T04:29:00.946Z,33.8
2019-04-05T04:29:50.121Z,33.8
2019-04-05T04:30:40.429Z,33.8
2019-04-05T04:31:30.822Z,33.8
2019-04-05T04:32:21.229Z,33.8
2019-04-05T04:33:11.004Z,33.8
2019-04-05T04:34:01.026Z,33.8
2019-04-05T04:34:50.485Z,33.8
2019-04-05T04:35:55.792Z,33.8
2019-04-05T04:36:30.355Z,33.8
2019-04-05T04:37:20.663Z,33.8
2019-04-05T04:38:11.815Z,33.8
2019-04-05T04:39:01.009Z,33.8
2019-04-05T04:39:51.051Z,33.7
2019-04-05T04:40:40.952Z,33.7
2019-04-05T04:41:35.836Z,33.7
2019-04-05T04:42:21.776Z,33.7
2019-04-05T04:43:11.053Z,33.7
2019-04-05T04:44:02.000Z,33.7
2019-04-05T04:44:51.977Z,33.6
2019-04-05T04:45:40.940Z,33.6
2019-04-05T04:46:31.796Z,33.6
2019-04-05T04:47:33.160Z,33.6
2019-04-05T04:48:12.270Z,33.6
2019-04-05T04:49:02.000Z,33.6
2019-04-05T04:49:52.043Z,33.6
2019-04-05T04:50:41.787Z,33.6
2019-04-05T04:51:32.102Z,33.6
2019-04-05T04:52:36.840Z,33.5
2019-04-05T04:53:12.218Z,33.5
2019-04-05T04:54:02.043Z,33.5
2019-04-05T04:54:52.607Z,33.5
2019-04-05T04:55:42.734Z,33.5
2019-04-05T04:56:32.457Z,33.4
2019-04-05T04:57:22.807Z,33.4
2019-04-05T04:58:26.720Z,33.4
2019-04-05T04:59:02.067Z,33.4
2019-04-05T04:59:52.433Z,33.4
2019-04-05T05:00:42.512Z,33.4
2019-04-05T05:01:32.076Z,33.4
2019-04-05T05:02:23.193Z,33.3
2019-04-05T05:03:12.488Z,33.3
2019-04-05T05:04:03.106Z,33.3
2019-04-05T05:04:53.444Z,33.3
2019-04-05T05:05:43.171Z,33.3
2019-04-05T05:06:32.945Z,33.3
2019-04-05T05:07:23.257Z,33.3
2019-04-05T05:08:13.347Z,33.3
2019-04-05T05:09:03.417Z,33.2
2019-04-05T05:09:53.171Z,33.2
2019-04-05T05:10:43.019Z,33.1
2019-04-05T05:11:32.239Z,33.1
2019-04-05T05:12:22.856Z,33.1
2019-04-05T05:13:12.722Z,33
2019-04-05T05:14:04.016Z,33
2019-04-05T05:14:52.768Z,32.9
2019-04-05T05:15:44.145Z,32.9
2019-04-05T05:16:32.410Z,32.9
2019-04-05T05:17:23.552Z,32.9
2019-04-05T05:18:13.283Z,32.9
2019-04-05T05:19:03.344Z,32.8
2019-04-05T05:19:53.409Z,32.8
2019-04-05T05:20:46.186Z,32.8
2019-04-05T05:21:33.526Z,32.8
2019-04-05T05:22:23.604Z,32.8
2019-04-05T05:23:13.716Z,32.8
2019-04-05T05:24:04.037Z,32.7
2019-04-05T05:24:54.316Z,32.7
2019-04-05T05:25:47.413Z,32.7
2019-04-05T05:26:34.913Z,32.6
2019-04-05T05:27:24.224Z,32.6
2019-04-05T05:28:15.037Z,32.6
2019-04-05T05:29:04.693Z,32.6
2019-04-05T05:29:54.413Z,32.6
2019-04-05T05:30:44.870Z,32.6
2019-04-05T05:31:34.710Z,32.6
2019-04-05T05:32:24.501Z,32.6
2019-04-05T05:33:14.568Z,32.5
2019-04-05T05:34:04.636Z,32.5
2019-04-05T05:35:08.455Z,32.5
2019-04-05T05:35:45.041Z,32.5
2019-04-05T05:36:35.315Z,32.5
2019-04-05T05:37:24.613Z,32.4
2019-04-05T05:38:30.437Z,32.4
2019-04-05T05:39:05.845Z,32.4
2019-04-05T05:39:55.585Z,32.4
2019-04-05T05:40:45.666Z,32.4
2019-04-05T05:41:35.770Z,32.4
2019-04-05T05:42:25.505Z,32.4
2019-04-05T05:43:16.128Z,32.4
2019-04-05T05:44:06.190Z,32.4
2019-04-05T05:44:56.018Z,32.4
2019-04-05T05:45:46.105Z,32.4
2019-04-05T05:46:35.872Z,32.4
2019-04-05T05:47:26.215Z,32.4
2019-04-05T05:48:15.995Z,32.3
2019-04-05T05:49:06.597Z,32.3
2019-04-05T05:49:56.640Z,32.3
2019-04-05T05:50:46.354Z,32.3
2019-04-05T05:51:36.791Z,32.3
2019-04-05T05:52:26.731Z,32.3
2019-04-05T05:53:15.774Z,32.3
2019-04-05T05:54:06.691Z,32.3
2019-04-05T05:54:55.701Z,32.3
2019-04-05T05:55:46.758Z,32.3
2019-04-05T05:56:36.631Z,32.3
2019-04-05T05:57:27.416Z,32.3
2019-04-05T05:58:16.623Z,32.3
2019-04-05T05:59:07.019Z,32.3
2019-04-05T06:00:01.186Z,31.3
2019-04-05T06:00:47.096Z,21.4
2019-04-05T06:01:36.355Z,24.5
2019-04-05T06:02:26.470Z,30
2019-04-05T06:05:13.210Z,29.6
2019-04-05T06:06:10.445Z,28.9
2019-04-05T06:06:54.022Z,28.5
2019-04-05T06:07:43.626Z,28.4
2019-04-05T06:08:35.579Z,28.3
2019-04-05T06:09:23.991Z,28.3
2019-04-05T06:10:14.932Z,28.4
2019-04-05T06:11:03.807Z,28.4
2019-04-05T06:11:55.029Z,28.6
2019-04-05T06:12:44.743Z,28.8
2019-04-05T06:13:34.883Z,28.9
2019-04-05T06:14:25.502Z,29.1
2019-04-05T06:15:14.903Z,29.2
2019-04-05T06:16:05.560Z,29.3
2019-04-05T06:17:10.515Z,29.5
2019-04-05T06:17:45.422Z,29.7
2019-04-05T06:18:35.688Z,29.8
2019-04-05T06:19:25.530Z,29.1
2019-04-05T06:20:15.075Z,25.6
2019-04-05T06:21:09.174Z,30.9
2019-04-05T06:21:55.922Z,35.4
2019-04-05T06:22:48.165Z,36.5
2019-04-05T06:23:39.628Z,35.8
2019-04-05T06:24:26.134Z,34.3
2019-04-05T06:25:16.360Z,33.1
2019-04-05T06:26:05.996Z,32.4
2019-04-05T06:26:56.032Z,32.4
2019-04-05T06:27:46.062Z,32.9
2019-04-05T06:28:36.772Z,33.6
2019-04-05T06:29:26.517Z,34.3
2019-04-05T06:30:16.046Z,34.7
2019-04-05T06:31:06.719Z,34.9
2019-04-05T06:31:56.415Z,34.9
2019-04-05T06:32:45.952Z,34.9
2019-04-05T06:33:41.202Z,34.9
2019-04-05T06:34:26.294Z,35.1
2019-04-05T06:35:16.324Z,35.3
2019-04-05T06:36:06.446Z,35.4
2019-04-05T06:36:57.336Z,35.6
2019-04-05T06:37:46.242Z,35.8
2019-04-05T06:38:36.026Z,35.9
2019-04-05T06:39:26.465Z,36.1
2019-04-05T06:40:16.750Z,36.4
2019-04-05T06:41:06.914Z,36.5
2019-04-05T06:41:56.534Z,36.8
2019-04-05T06:42:47.110Z,36.9
2019-04-05T06:43:36.382Z,37.1
2019-04-05T06:44:30.365Z,37.3
2019-04-05T06:45:17.169Z,37.4
2019-04-05T06:46:09.304Z,37.6
2019-04-05T06:46:57.386Z,37.8
2019-04-05T06:47:47.059Z,37.9
2019-04-05T06:48:37.908Z,38.1
2019-04-05T06:49:27.929Z,38.2
2019-04-05T06:50:16.846Z,38.4
2019-04-05T06:51:07.261Z,38.6
2019-04-05T06:51:57.838Z,38.8
2019-04-05T06:53:02.521Z,38.9
2019-04-05T06:53:37.932Z,39.1
2019-04-05T06:54:28.275Z,39.2
2019-04-05T06:55:18.333Z,39.4
2019-04-05T06:56:08.145Z,39.6
2019-04-05T06:56:58.193Z,39.7
2019-04-05T06:57:48.862Z,39.9
2019-04-05T06:58:38.577Z,40.1
2019-04-05T06:59:28.395Z,40.3
2019-04-05T07:00:18.234Z,40.4
2019-04-05T07:01:07.865Z,40.6
2019-04-05T07:01:58.788Z,40.9
2019-04-05T07:02:48.643Z,40.9
2019-04-05T07:05:14.475Z,41.4
2019-04-05T07:06:04.490Z,41.6
2019-04-05T07:06:54.830Z,41.8
2019-04-05T07:07:44.780Z,41.9
2019-04-05T07:08:34.208Z,42.1
2019-04-05T07:09:24.457Z,42.3
2019-04-05T07:10:14.767Z,42.4
2019-04-05T07:11:05.192Z,42.5
2019-04-05T07:11:54.675Z,42.6
2019-04-05T07:12:44.503Z,42.8
2019-04-05T07:13:34.659Z,42.9
2019-04-05T07:14:25.372Z,43
2019-04-05T07:15:14.643Z,43.1
2019-04-05T07:16:05.462Z,43.2
2019-04-05T07:16:55.251Z,43.3
2019-04-05T07:17:45.582Z,43.4
2019-04-05T07:18:41.735Z,43.6
2019-04-05T07:19:25.740Z,43.9
2019-04-05T07:20:15.296Z,44
2019-04-05T07:21:05.024Z,44.1
2019-04-05T07:21:55.634Z,44.3
2019-04-05T07:22:45.234Z,44.3
2019-04-05T07:23:35.761Z,44.4
2019-04-05T07:24:25.859Z,44.6
2019-04-05T07:25:15.882Z,44.7
2019-04-05T07:26:06.181Z,44.9
2019-04-05T07:26:55.485Z,45.1
2019-04-05T07:27:46.318Z,45.3
2019-04-05T07:28:36.122Z,45.6
2019-04-05T07:29:26.493Z,45.8
2019-04-05T07:30:16.768Z,46
2019-04-05T07:31:06.096Z,46.2
2019-04-05T07:31:55.781Z,46.4
2019-04-05T07:32:46.133Z,46.6
2019-04-05T07:33:35.661Z,46.9
2019-04-05T07:34:26.516Z,47.1
2019-04-05T07:35:16.596Z,47.3
2019-04-05T07:36:09.333Z,47.6
2019-04-05T07:36:57.052Z,47.8
2019-04-05T07:37:46.753Z,48
2019-04-05T07:38:36.283Z,48.2
2019-04-05T07:39:26.928Z,48.4
2019-04-05T07:40:16.663Z,48.6
2019-04-05T07:41:06.805Z,48.8
2019-04-05T07:41:56.521Z,49.1
2019-04-05T07:42:47.189Z,49.3
2019-04-05T07:43:37.455Z,49.5
2019-04-05T07:44:26.970Z,49.7
2019-04-05T07:45:17.035Z,49.9
2019-04-05T07:46:07.093Z,50.2
2019-04-05T07:46:57.718Z,50.4
2019-04-05T07:47:47.481Z,50.5
2019-04-05T07:48:51.170Z,50.4
2019-04-05T07:49:27.685Z,50.3
2019-04-05T07:50:17.399Z,50.3
2019-04-05T07:51:08.002Z,50.1
2019-04-05T07:51:58.067Z,49.6
2019-04-05T07:52:48.200Z,48.6
2019-04-05T07:53:38.197Z,47.5
2019-04-05T07:54:27.689Z,46.3
2019-04-05T07:55:17.467Z,45.3
2019-04-05T07:56:07.831Z,44.5
2019-04-05T07:56:57.889Z,44.2
2019-04-05T07:57:48.247Z,44.4
2019-04-05T07:58:37.733Z,45.1
2019-04-05T07:59:28.627Z,45.6
2019-04-05T08:00:33.352Z,45.7
2019-04-05T08:01:08.709Z,45.1
2019-04-05T08:01:58.503Z,44.4
2019-04-05T08:02:48.322Z,43.4
2019-04-05T08:03:38.649Z,42.8
2019-04-05T08:04:28.152Z,42.3
2019-04-05T08:05:18.505Z,42.1
2019-04-05T08:06:08.554Z,41.8
2019-04-05T08:06:59.155Z,41.6
2019-04-05T08:07:49.215Z,41.3
2019-04-05T08:08:39.271Z,40.9
2019-04-05T08:09:29.413Z,40.6
2019-04-05T08:10:18.884Z,40.3
2019-04-05T08:11:09.018Z,40.1
2019-04-05T08:11:59.507Z,39.9
2019-04-05T08:12:49.305Z,39.8
2019-04-05T08:13:39.112Z,39.7
2019-04-05T08:14:29.498Z,39.6
2019-04-05T08:15:19.453Z,39.6
2019-04-05T08:16:09.562Z,39.5
2019-04-05T08:16:59.580Z,39.4
2019-04-05T08:17:48.845Z,39.4
2019-04-05T08:18:39.179Z,39.3
2019-04-05T08:19:29.562Z,39.3
2019-04-05T08:20:19.910Z,39.3
2019-04-05T08:21:09.914Z,39.3
2019-04-05T08:22:00.252Z,39.3
2019-04-05T08:22:49.515Z,39.3
2019-04-05T08:23:39.807Z,39.3
2019-04-05T08:24:30.207Z,39.3
2019-04-05T08:25:19.653Z,39.3
2019-04-05T08:26:10.572Z,39.2
2019-04-05T08:27:00.629Z,39.2
2019-04-05T08:27:50.404Z,39.2
2019-04-05T08:28:40.772Z,39.2
2019-04-05T08:29:29.702Z,39.2
2019-04-05T08:30:20.868Z,39.3
2019-04-05T08:31:18.819Z,39.4
2019-04-05T08:32:15.115Z,39.5
2019-04-05T08:32:51.036Z,39.8
2019-04-05T08:33:42.216Z,39.9
2019-04-05T08:34:31.192Z,40.3
2019-04-05T08:35:20.663Z,40.8
2019-04-05T08:36:10.765Z,41.3
2019-04-05T08:37:01.039Z,41.9
2019-04-05T08:37:51.089Z,42.8
2019-04-05T08:38:44.646Z,43.6
2019-04-05T08:39:30.725Z,44.1
2019-04-05T08:40:21.019Z,44.4
2019-04-05T08:41:11.633Z,44.3
2019-04-05T08:42:01.414Z,44
2019-04-05T08:42:50.938Z,43.8
2019-04-05T08:43:40.754Z,43.7
2019-04-05T08:44:31.586Z,43.8
2019-04-05T08:45:21.673Z,44.1
2019-04-05T08:46:11.436Z,44.6
2019-04-05T08:47:01.834Z,45.4
2019-04-05T08:47:51.658Z,46.2
2019-04-05T08:48:41.606Z,46.8
2019-04-05T08:49:31.696Z,46.8
2019-04-05T08:50:22.273Z,46.6
2019-04-05T08:51:12.091Z,46.4
2019-04-05T08:52:01.898Z,46.6
2019-04-05T08:52:52.252Z,46.9
2019-04-05T08:53:41.965Z,47.2
2019-04-05T08:54:42.033Z,47.3
2019-04-05T08:55:22.381Z,47.3
2019-04-05T08:56:12.373Z,47.1
2019-04-05T08:57:02.515Z,46.9
2019-04-05T08:57:53.252Z,46.6
2019-04-05T08:58:42.347Z,46.3
2019-04-05T08:59:32.770Z,46
2019-04-05T09:00:22.473Z,45.9
2019-04-05T09:01:13.179Z,45.9
2019-04-05T09:02:02.858Z,45.9
2019-04-05T09:02:54.502Z,45.9
2019-04-05T09:03:42.738Z,45.9
2019-04-05T09:04:31.947Z,46
2019-04-05T09:05:22.857Z,46.2
2019-04-05T09:06:12.339Z,46.4
2019-04-05T09:07:03.234Z,46.3
2019-04-05T09:07:53.589Z,46.2
2019-04-05T09:08:43.445Z,46
2019-04-05T09:09:33.147Z,45.8
2019-04-05T09:10:22.761Z,45.5
2019-04-05T09:11:13.266Z,45.4
2019-04-05T09:12:03.899Z,45.4
2019-04-05T09:12:53.964Z,45.5
2019-04-05T09:13:44.241Z,45.6
2019-04-05T09:14:33.524Z,45.8
2019-04-05T09:15:23.567Z,46.1
2019-04-05T09:16:17.431Z,46.5
2019-04-05T09:17:04.398Z,46.9
2019-04-05T09:17:54.284Z,47
2019-04-05T09:18:44.066Z,47
2019-04-05T09:19:33.431Z,46.8
2019-04-05T09:20:24.272Z,46.8
2019-04-05T09:21:19.836Z,46.8
2019-04-05T09:22:04.021Z,46.8
2019-04-05T09:22:54.375Z,46.9
2019-04-05T09:23:44.494Z,47.3
2019-04-05T09:24:33.700Z,47.8
2019-04-05T09:25:25.644Z,48.4
2019-04-05T09:26:14.902Z,49.1
2019-04-05T09:27:04.698Z,49.6
2019-04-05T09:27:54.538Z,49.7
2019-04-05T09:28:44.318Z,49.7
2019-04-05T09:29:34.871Z,49.8
2019-04-05T09:30:24.913Z,49.9
2019-04-05T09:31:15.323Z,49.8
2019-04-05T09:32:19.426Z,49.4
2019-04-05T09:32:54.568Z,49
2019-04-05T09:33:44.914Z,48.9
2019-04-05T09:34:35.644Z,48.9
2019-04-05T09:35:25.060Z,49.4
2019-04-05T09:36:15.411Z,50.3
2019-04-05T09:37:05.166Z,51.1
2019-04-05T09:37:54.645Z,51.7
2019-04-05T09:38:45.603Z,51.8
2019-04-05T09:39:35.587Z,51.4
2019-04-05T09:40:26.718Z,50.6
2019-04-05T09:41:15.713Z,49.7
2019-04-05T09:42:05.530Z,49.1
2019-04-05T09:42:55.558Z,48.6
2019-04-05T09:43:45.950Z,48.3
2019-04-05T09:44:35.818Z,48.1
2019-04-05T09:45:26.031Z,47.9
2019-04-05T09:46:16.345Z,47.6
2019-04-05T09:47:05.595Z,47.4
2019-04-05T09:47:56.205Z,47.1
2019-04-05T09:48:46.542Z,46.9
2019-04-05T09:49:42.753Z,46.8
2019-04-05T09:50:25.875Z,46.6
2019-04-05T09:51:16.327Z,46.5
2019-04-05T09:52:05.184Z,46.4
2019-04-05T09:52:55.267Z,46.3
2019-04-05T09:53:46.150Z,46.3
2019-04-05T09:54:36.464Z,46.1
2019-04-05T09:55:26.530Z,45.9
2019-04-05T09:56:15.768Z,45.7
2019-04-05T09:57:06.669Z,45.5
2019-04-05T09:57:56.634Z,45.3
2019-04-05T09:58:47.028Z,45.1
2019-04-05T09:59:36.449Z,45
2019-04-05T10:00:27.392Z,44.8
2019-04-05T10:01:16.918Z,44.7
2019-04-05T10:02:07.279Z,44.6
2019-04-05T10:02:57.379Z,44.4
2019-04-05T10:03:47.133Z,44.4
2019-04-05T10:07:18.069Z,44.1
2019-04-05T10:08:54.616Z,44
2019-04-05T10:10:01.267Z,44
2019-04-05T10:11:03.252Z,44
2019-04-05T12:06:14.172Z,37.2
2019-04-05T12:07:03.998Z,37.1
2019-04-05T12:08:02.867Z,37.1
2019-04-05T12:08:43.893Z,37
2019-04-05T12:09:34.705Z,36.9
2019-04-05T12:10:25.581Z,36.8
2019-04-05T12:11:14.530Z,36.6
2019-04-05T12:12:04.182Z,36.4
2019-04-05T12:12:54.982Z,36.4
2019-04-05T12:13:47.960Z,36.3
2019-04-05T12:14:40.654Z,36.2
2019-04-05T12:15:24.887Z,36.1
2019-04-05T12:16:16.319Z,36.1
2019-04-05T12:17:12.175Z,36
2019-04-05T12:17:54.489Z,35.9
2019-04-05T12:18:45.151Z,35.9
2019-04-05T12:19:41.218Z,35.9
2019-04-05T12:20:25.203Z,35.8
2019-04-05T12:21:15.029Z,35.8
2019-04-05T12:22:12.716Z,35.8
2019-04-05T12:22:58.874Z,35.8
2019-04-05T12:23:45.024Z,35.8
2019-04-05T12:24:38.798Z,35.7
2019-04-05T12:25:25.925Z,35.6
2019-04-05T12:26:15.359Z,35.6
2019-04-05T12:27:10.551Z,35.6
2019-04-05T12:28:13.941Z,35.6
2019-04-05T12:28:45.787Z,35.5
2019-04-05T12:29:35.612Z,35.4
2019-04-05T12:30:25.406Z,35.4
2019-04-05T12:31:16.291Z,35.4
2019-04-05T12:32:05.861Z,35.3
2019-04-05T12:32:56.177Z,35.3
2019-04-05T12:33:54.148Z,35.3
2019-04-05T12:34:35.711Z,35.3
2019-04-05T12:35:28.288Z,35.3
2019-04-05T12:36:15.775Z,35.2
2019-04-05T12:37:06.705Z,35.2
2019-04-05T12:38:01.738Z,35.2
2019-04-05T12:38:46.552Z,35.2
2019-04-05T12:39:41.520Z,35.2
2019-04-05T12:40:26.925Z,35.3
2019-04-05T12:41:20.598Z,35.3
2019-04-05T12:42:06.815Z,35.3
2019-04-05T12:42:59.153Z,35.3
2019-04-05T12:43:53.175Z,35.3
2019-04-05T12:44:36.410Z,35.3
2019-04-05T12:45:27.287Z,35.3
2019-04-05T12:46:22.108Z,35.4
2019-04-05T12:47:06.341Z,35.4
2019-04-05T12:48:00.103Z,35.4
2019-04-05T12:48:51.505Z,35.6
2019-04-05T12:49:37.592Z,35.6
2019-04-05T12:50:26.287Z,35.7
2019-04-05T12:51:21.855Z,35.7
2019-04-05T12:52:06.192Z,35.8
2019-04-05T12:53:01.540Z,35.8
2019-04-05T12:53:47.430Z,35.9
2019-04-05T12:54:37.412Z,35.9
2019-04-05T12:55:30.387Z,35.9
2019-04-05T12:56:17.529Z,36.1
2019-04-05T12:57:07.107Z,36.1
2019-04-05T12:58:01.270Z,36.1
2019-04-05T12:58:48.283Z,36.1
2019-04-05T12:59:38.084Z,36.2
2019-04-05T13:00:32.019Z,36.2
2019-04-05T13:01:18.219Z,36.2
2019-04-05T13:02:07.982Z,36.3
2019-04-05T13:03:00.586Z,36.3
2019-04-05T13:03:50.979Z,36.4
2019-04-05T13:04:38.424Z,36.4
2019-04-05T13:05:28.281Z,36.4
2019-04-05T13:06:23.654Z,36.4
2019-04-05T13:07:08.886Z,36.4
2019-04-05T13:08:00.194Z,36.4
2019-04-05T13:08:49.011Z,36.4
2019-04-05T13:09:39.512Z,36.5
2019-04-05T13:10:35.290Z,36.5
2019-04-05T13:11:19.440Z,36.6
2019-04-05T13:12:09.059Z,36.6
2019-04-05T13:13:03.710Z,36.6
2019-04-05T13:13:47.971Z,36.7
2019-04-05T13:14:39.426Z,36.8
2019-04-05T13:15:27.846Z,36.8
2019-04-05T13:16:18.713Z,36.8
2019-04-05T13:17:08.846Z,36.8
2019-04-05T13:18:03.396Z,36.8
2019-04-05T13:18:49.236Z,36.7
2019-04-05T13:19:39.536Z,36.7
2019-04-05T13:20:33.300Z,36.7
2019-04-05T13:21:27.154Z,36.6
2019-04-05T13:22:09.721Z,36.6
2019-04-05T13:23:06.609Z,36.5
2019-04-05T13:23:49.592Z,36.4
2019-04-05T13:24:44.075Z,36.4
2019-04-05T13:25:29.510Z,36.4
2019-04-05T13:26:19.799Z,36.3
2019-04-05T13:27:14.846Z,36.3
2019-04-05T13:28:14.499Z,36.3
2019-04-05T13:28:54.640Z,36.3
2019-04-05T13:29:40.086Z,36.3
2019-04-05T13:30:30.426Z,36.2
2019-04-05T13:31:24.015Z,36.1
2019-04-05T13:32:10.447Z,36.1
2019-04-05T13:32:59.678Z,36
2019-04-05T13:33:54.038Z,36
2019-04-05T13:34:40.619Z,35.9
2019-04-05T13:35:30.147Z,35.9
2019-04-05T13:36:21.005Z,35.9
2019-04-05T13:37:25.164Z,35.8
2019-04-05T13:38:05.053Z,35.8
2019-04-05T13:39:05.542Z,35.8
2019-04-05T13:39:41.071Z,35.8
2019-04-05T13:40:35.222Z,35.8
2019-04-05T13:41:23.411Z,35.8
2019-04-05T13:42:11.507Z,35.8
2019-04-05T13:43:06.032Z,35.7
2019-04-05T13:43:50.972Z,35.7
2019-04-05T13:44:41.077Z,35.6
2019-04-05T13:45:31.124Z,35.6
2019-04-05T13:46:31.717Z,35.6
2019-04-05T13:47:14.934Z,35.6
2019-04-05T13:48:01.317Z,35.6
2019-04-05T13:48:51.669Z,35.5
2019-04-05T13:49:46.311Z,35.4
2019-04-05T13:50:31.502Z,35.4
2019-04-05T13:51:37.444Z,35.4
2019-04-05T13:52:17.262Z,35.3
2019-04-05T13:53:01.418Z,35.3
2019-04-05T13:53:52.384Z,35.2
2019-04-05T13:54:45.646Z,35.1
2019-04-05T13:55:32.176Z,35.1
2019-04-05T13:56:22.469Z,35
2019-04-05T13:57:15.884Z,35
2019-04-05T13:58:05.638Z,34.9
2019-04-05T13:58:52.766Z,34.9
2019-04-05T13:59:45.179Z,34.9
2019-04-05T14:00:32.498Z,34.8
2019-04-05T14:01:27.266Z,34.8
2019-04-05T14:02:12.861Z,34.8
2019-04-05T14:03:02.698Z,34.8
2019-04-05T14:03:55.715Z,34.8
2019-04-05T14:04:43.066Z,34.7
2019-04-05T14:07:14.094Z,34.6
2019-04-05T14:08:16.386Z,34.6
2019-04-05T14:08:53.648Z,34.6
2019-04-05T14:09:47.058Z,34.6
2019-04-05T14:10:34.380Z,34.6
2019-04-05T14:11:26.811Z,34.6
2019-04-05T14:12:16.130Z,34.5
2019-04-05T14:13:04.492Z,34.5
2019-04-05T14:13:54.284Z,34.4
2019-04-05T14:14:54.030Z,34.4
2019-04-05T14:15:37.245Z,34.3
2019-04-05T14:16:25.043Z,34.3
2019-04-05T14:17:19.610Z,34.3
2019-04-05T14:18:04.907Z,34.2
2019-04-05T14:18:55.912Z,34.2
2019-04-05T14:19:49.557Z,34.1
2019-04-05T14:20:34.773Z,34.1
2019-04-05T14:21:47.898Z,34.1
2019-04-05T14:22:17.296Z,34
2019-04-05T14:23:06.521Z,34
2019-04-05T14:23:59.883Z,34
2019-04-05T14:24:48.049Z,33.9
2019-04-05T14:25:38.006Z,33.9
2019-04-05T14:26:31.924Z,33.8
2019-04-05T14:27:17.966Z,33.8
2019-04-05T14:28:11.208Z,33.8
2019-04-05T14:28:59.183Z,33.7
2019-04-05T14:29:51.023Z,33.7
2019-04-05T14:30:39.605Z,33.6
2019-04-05T14:31:32.219Z,33.6
2019-04-05T14:32:27.373Z,33.6
2019-04-05T14:33:08.410Z,33.6
2019-04-05T14:34:00.814Z,33.6
2019-04-05T14:34:48.465Z,33.6
2019-04-05T14:35:38.824Z,33.6
2019-04-05T14:36:29.572Z,33.6
2019-04-05T14:37:25.755Z,33.6
2019-04-05T14:38:12.300Z,33.6
2019-04-05T14:38:59.083Z,33.6
2019-04-05T14:39:48.565Z,33.6
2019-04-05T14:40:39.195Z,33.6
2019-04-05T14:41:29.214Z,33.5
2019-04-05T14:42:20.962Z,33.5
2019-04-05T14:43:09.383Z,33.5
2019-04-05T14:43:59.912Z,33.4
2019-04-05T14:44:48.687Z,33.4
2019-04-05T14:45:39.337Z,33.4
2019-04-05T14:46:34.022Z,33.4
2019-04-05T14:47:22.255Z,33.4
2019-04-05T14:48:08.407Z,33.4
2019-04-05T14:49:02.903Z,33.4
2019-04-05T14:49:49.316Z,33.4
2019-04-05T14:50:39.655Z,33.4
2019-04-05T14:51:34.322Z,33.4
2019-04-05T14:52:19.729Z,33.4
2019-04-05T14:53:09.492Z,33.5
2019-04-05T14:54:03.924Z,33.5
2019-04-05T14:54:49.472Z,33.5
2019-04-05T14:55:39.871Z,33.5
2019-04-05T14:56:34.543Z,33.5
2019-04-05T14:57:20.411Z,33.5
2019-04-05T14:58:15.083Z,33.4
2019-04-05T14:59:00.514Z,33.4
2019-04-05T14:59:49.764Z,33.4
2019-04-05T15:00:40.662Z,33.3
2019-04-05T15:01:30.142Z,33.3
2019-04-05T15:02:20.201Z,33.3
2019-04-05T15:03:10.622Z,33.2
2019-04-05T15:04:00.623Z,33.2
2019-04-05T15:04:53.758Z,33.2
2019-04-05T15:05:41.024Z,33.1
2019-04-05T15:06:32.728Z,33.1
2019-04-05T15:07:25.383Z,33.1
2019-04-05T15:08:10.993Z,33.1
2019-04-05T15:09:03.714Z,33
2019-04-05T15:09:50.458Z,32.9
2019-04-05T15:10:41.081Z,32.9
2019-04-05T15:11:34.918Z,32.9
2019-04-05T15:12:21.183Z,32.8
2019-04-05T15:13:10.728Z,32.8
2019-04-05T15:14:00.496Z,32.8
2019-04-05T15:14:51.481Z,32.7
2019-04-05T15:15:40.890Z,32.6
2019-04-05T15:16:31.257Z,32.6
2019-04-05T15:17:22.362Z,32.6
2019-04-05T15:18:10.789Z,32.5
2019-04-05T15:19:01.958Z,32.4
2019-04-05T15:19:51.460Z,32.4
2019-04-05T15:20:41.595Z,32.3
2019-04-05T15:21:31.082Z,32.3
2019-04-05T15:22:21.658Z,32.2
2019-04-05T15:23:18.563Z,32.1
2019-04-05T15:24:02.340Z,32.1
2019-04-05T15:24:53.282Z,32
2019-04-05T15:25:41.696Z,32
2019-04-05T15:26:32.517Z,31.9
2019-04-05T15:27:26.113Z,31.9
2019-04-05T15:28:12.617Z,31.8
2019-04-05T15:29:02.191Z,31.8
2019-04-05T15:29:56.830Z,31.8
2019-04-05T15:30:42.472Z,31.7
2019-04-05T15:31:32.952Z,31.6
2019-04-05T15:32:29.427Z,31.6
2019-04-05T15:33:12.484Z,31.5
2019-04-05T15:34:04.554Z,31.4
2019-04-05T15:34:52.855Z,31.4
2019-04-05T15:35:42.912Z,31.3
2019-04-05T15:36:36.914Z,31.3
2019-04-05T15:37:23.022Z,31.1
2019-04-05T15:38:12.547Z,31.1
2019-04-05T15:39:06.977Z,31.1
2019-04-05T15:39:52.960Z,30.9
2019-04-05T15:40:42.803Z,30.9
2019-04-05T15:41:33.318Z,30.9
2019-04-05T15:42:23.704Z,30.8
2019-04-05T15:43:13.721Z,30.8
2019-04-05T15:44:06.799Z,30.7
2019-04-05T15:44:53.799Z,30.7
2019-04-05T15:45:46.649Z,30.6
2019-04-05T15:46:33.454Z,30.6
2019-04-05T15:47:27.541Z,30.6
2019-04-05T15:48:13.461Z,30.5
2019-04-05T15:49:03.908Z,30.6
2019-04-05T15:49:57.858Z,30.5
2019-04-05T15:50:43.718Z,30.4
2019-04-05T15:51:34.274Z,30.4
2019-04-05T15:52:33.401Z,30.3
2019-04-05T15:53:13.556Z,30.3
2019-04-05T15:54:06.703Z,30.3
2019-04-05T15:54:54.328Z,30.2
2019-04-05T15:55:43.593Z,30.2
2019-04-05T15:56:38.158Z,30.1
2019-04-05T15:57:23.731Z,30.1
2019-04-05T15:58:13.921Z,30
2019-04-05T15:59:08.808Z,30
2019-04-05T15:59:54.305Z,29.9
2019-04-05T16:00:44.800Z,29.9
2019-04-05T16:01:38.880Z,29.9
2019-04-05T16:02:25.127Z,29.8
2019-04-05T16:03:14.630Z,29.8
2019-04-05T16:04:08.725Z,29.7
2019-04-05T16:04:54.237Z,29.7
2019-04-05T16:07:14.056Z,29.6
2019-04-05T16:08:03.861Z,29.5
2019-04-05T16:08:53.862Z,29.4
2019-04-05T16:09:43.640Z,29.4
2019-04-05T16:10:34.262Z,29.4
2019-04-05T16:11:24.582Z,29.3
2019-04-05T16:12:14.092Z,29.3
2019-04-05T16:13:03.880Z,29.2
2019-04-05T16:13:54.505Z,29.1
2019-04-05T16:14:44.545Z,29.1
2019-04-05T16:15:34.333Z,29
2019-04-05T16:16:24.980Z,28.9
2019-04-05T16:17:17.277Z,28.8
2019-04-05T16:18:04.233Z,28.7
2019-04-05T16:18:54.566Z,28.6
2019-04-05T16:19:45.599Z,28.5
2019-04-05T16:20:34.489Z,28.4